createdAt,value
2023-04-14T00:00:13.776Z,7.48
2023-04-14T00:02:47.983Z,7.45
2023-04-14T00:05:20.448Z,7.34
2023-04-14T00:07:51.461Z,7.31
2023-04-14T00:10:22.630Z,7.37
2023-04-14T00:12:54.345Z,7.37
2023-04-14T00:15:27.700Z,7.24
2023-04-14T00:18:01.601Z,7.12
2023-04-14T00:20:32.838Z,7.16
2023-04-14T00:23:04.370Z,7.23
2023-04-14T00:25:34.977Z,7.18
2023-04-14T00:28:05.844Z,7.12
2023-04-14T00:30:36.559Z,7.13
2023-04-14T00:33:09.846Z,7.02
2023-04-14T00:35:40.739Z,7.11
2023-04-14T00:38:12.291Z,6.76
2023-04-14T00:40:43.198Z,6.92
2023-04-14T00:43:14.674Z,7.00
2023-04-14T00:45:49.696Z,7.09
2023-04-14T00:48:24.747Z,6.96
2023-04-14T00:50:55.923Z,7.05
2023-04-14T00:53:27.550Z,7.04
2023-04-14T00:55:58.357Z,7.00
2023-04-14T00:58:29.846Z,7.00
2023-04-14T01:01:01.936Z,7.01
2023-04-14T01:03:36.402Z,6.99
2023-04-14T01:06:08.020Z,6.95
2023-04-14T01:08:39.508Z,6.92
2023-04-14T01:11:17.210Z,6.81
2023-04-14T01:14:01.433Z,6.81
2023-04-14T01:16:35.816Z,6.74
2023-04-14T01:19:35.526Z,6.78
2023-04-14T01:22:09.745Z,6.77
2023-04-14T01:24:54.849Z,6.68
2023-04-14T01:27:38.865Z,6.53
2023-04-14T01:30:41.890Z,6.63
2023-04-14T01:33:21.219Z,6.63
2023-04-14T01:35:55.981Z,6.46
2023-04-14T01:38:31.576Z,6.57
2023-04-14T01:41:08.429Z,6.53
2023-04-14T01:43:45.351Z,6.52
2023-04-14T01:46:20.468Z,6.52
2023-04-14T01:48:54.329Z,6.53
2023-04-14T01:51:27.653Z,6.40
2023-04-14T01:54:00.279Z,6.54
2023-04-14T01:56:32.761Z,6.49
2023-04-14T01:59:05.358Z,6.40
2023-04-14T02:01:37.951Z,6.43
2023-04-14T02:04:11.907Z,6.36
2023-04-14T02:06:46.245Z,6.48
2023-04-14T02:09:18.489Z,5.99
2023-04-14T02:11:52.059Z,6.46
2023-04-14T02:14:24.722Z,6.45
2023-04-14T02:16:57.698Z,6.40
2023-04-14T02:19:33.067Z,6.06
2023-04-14T02:22:06.616Z,6.30
2023-04-14T02:24:37.770Z,6.29
2023-04-14T02:27:13.411Z,6.30
2023-04-14T02:29:48.239Z,6.29
2023-04-14T02:32:26.038Z,6.27
2023-04-14T02:35:12.391Z,6.20
2023-04-14T02:37:46.859Z,6.24
2023-04-14T02:40:21.317Z,6.19
2023-04-14T02:42:59.157Z,6.11
2023-04-14T02:45:33.856Z,5.89
2023-04-14T02:48:11.222Z,6.18
2023-04-14T02:50:49.352Z,6.14
2023-04-14T02:53:26.816Z,6.11
2023-04-14T02:56:14.282Z,5.88
2023-04-14T02:58:48.569Z,6.13
2023-04-14T03:01:23.033Z,6.05
2023-04-14T03:03:58.645Z,6.08
2023-04-14T03:06:33.430Z,6.03
2023-04-14T03:09:07.923Z,5.92
2023-04-14T03:11:41.443Z,5.93
2023-04-14T03:14:14.756Z,5.92
2023-04-14T03:16:46.794Z,5.81
2023-04-14T03:19:18.764Z,5.86
2023-04-14T03:21:54.888Z,5.89
2023-04-14T03:24:31.404Z,5.85
2023-04-14T03:27:07.774Z,5.72
2023-04-14T03:29:44.108Z,5.67
2023-04-14T03:32:18.135Z,5.69
2023-04-14T03:34:55.105Z,5.63
2023-04-14T03:37:30.244Z,5.36
2023-04-14T03:40:09.468Z,5.57
2023-04-14T03:42:45.055Z,5.52
2023-04-14T03:45:22.222Z,5.56
2023-04-14T03:47:57.928Z,5.43
2023-04-14T03:50:33.162Z,5.50
2023-04-14T03:53:09.670Z,5.43
2023-04-14T03:55:41.601Z,5.46
2023-04-14T03:58:16.208Z,5.38
2023-04-14T04:00:50.418Z,5.37
2023-04-14T04:03:23.076Z,5.33
2023-04-14T04:05:54.611Z,5.26
2023-04-14T04:08:30.116Z,5.03
2023-04-14T04:11:01.222Z,5.00
2023-04-14T04:13:34.046Z,4.83
2023-04-14T04:16:05.283Z,4.88
2023-04-14T04:18:44.164Z,4.93
2023-04-14T04:21:17.544Z,4.99
2023-04-14T04:23:56.534Z,4.88
2023-04-14T04:26:30.316Z,4.97
2023-04-14T04:29:02.274Z,4.95
2023-04-14T04:31:34.508Z,4.93
2023-04-14T04:34:06.451Z,5.02
2023-04-14T04:36:40.764Z,5.03
2023-04-14T04:39:14.149Z,4.98
2023-04-14T04:41:46.832Z,5.09
2023-04-14T04:44:17.475Z,5.09
2023-04-14T04:46:55.063Z,5.06
2023-04-14T04:49:31.911Z,5.07
2023-04-14T04:52:06.764Z,5.11
2023-04-14T04:54:40.814Z,5.15
2023-04-14T04:57:12.247Z,5.11
2023-04-14T04:59:43.201Z,5.15
2023-04-14T05:02:13.927Z,5.28
2023-04-14T05:04:44.962Z,5.32
2023-04-14T05:07:15.804Z,5.33
2023-04-14T05:09:49.324Z,5.29
2023-04-14T05:12:20.187Z,5.38
2023-04-14T05:14:52.030Z,5.36
2023-04-14T05:17:23.309Z,5.47
2023-04-14T05:19:54.026Z,5.49
2023-04-14T05:22:24.951Z,5.62
2023-04-14T05:24:58.888Z,5.65
2023-04-14T05:27:29.704Z,5.72
2023-04-14T05:30:03.258Z,5.83
2023-04-14T05:32:34.053Z,5.89
2023-04-14T05:35:05.558Z,6.30
2023-04-14T05:37:36.719Z,7.22
2023-04-14T05:40:12.126Z,7.97
2023-04-14T05:42:43.628Z,8.53
2023-04-14T05:45:14.674Z,9.40
2023-04-14T05:47:46.920Z,10.40
2023-04-14T05:50:19.291Z,11.24
2023-04-14T05:52:52.263Z,11.39
2023-04-14T05:55:26.040Z,11.45
2023-04-14T05:57:56.793Z,11.30
2023-04-14T06:00:28.086Z,11.20
2023-04-14T06:02:59.244Z,10.96
2023-04-14T06:05:30.422Z,10.31
2023-04-14T06:08:01.443Z,10.09
2023-04-14T06:10:35.869Z,10.04
2023-04-14T06:13:08.807Z,9.88
2023-04-14T06:15:40.112Z,9.83
2023-04-14T06:18:10.761Z,9.69
2023-04-14T06:20:42.375Z,9.60
2023-04-14T06:23:13.236Z,9.57
2023-04-14T06:25:46.499Z,9.61
2023-04-14T06:28:17.155Z,9.62
2023-04-14T06:30:48.003Z,9.61
2023-04-14T06:33:18.861Z,9.40
2023-04-14T06:35:49.544Z,9.43
2023-04-14T06:38:20.163Z,9.40
2023-04-14T06:40:54.078Z,9.36
2023-04-14T06:43:25.306Z,9.42
2023-04-14T06:45:56.125Z,9.42
2023-04-14T06:48:27.574Z,9.47
2023-04-14T06:50:58.921Z,9.47
2023-04-14T06:53:31.199Z,9.56
2023-04-14T06:56:09.348Z,9.54
2023-04-14T06:58:40.428Z,9.63
2023-04-14T07:01:11.433Z,9.64
2023-04-14T07:03:42.446Z,9.60
2023-04-14T07:06:16.930Z,9.69
2023-04-14T07:08:48.487Z,9.69
2023-04-14T07:11:21.709Z,9.72
2023-04-14T07:13:52.751Z,9.97
2023-04-14T07:16:23.630Z,10.00
2023-04-14T07:18:54.577Z,10.15
2023-04-14T07:21:26.643Z,10.22
2023-04-14T07:23:57.627Z,10.29
2023-04-14T07:26:31.166Z,10.25
2023-04-14T07:29:02.358Z,10.28
2023-04-14T07:31:34.876Z,10.42
2023-04-14T07:34:06.128Z,10.52
2023-04-14T07:36:37.387Z,10.60
2023-04-14T07:39:08.502Z,10.61
2023-04-14T07:41:41.884Z,10.63
2023-04-14T07:44:12.907Z,10.55
2023-04-14T07:46:44.147Z,10.58
2023-04-14T07:49:15.421Z,10.56
2023-04-14T07:51:46.063Z,10.64
2023-04-14T07:54:17.268Z,10.71
2023-04-14T07:56:51.299Z,10.96
2023-04-14T07:59:21.954Z,11.01
2023-04-14T08:01:52.757Z,11.00
2023-04-14T08:04:23.925Z,11.10
2023-04-14T08:06:54.654Z,11.20
2023-04-14T08:09:25.599Z,11.17
2023-04-14T08:11:59.756Z,11.15
2023-04-14T08:14:30.752Z,11.15
2023-04-14T08:17:01.412Z,11.13
2023-04-14T08:19:33.976Z,11.11
2023-04-14T08:22:04.640Z,11.27
2023-04-14T08:24:37.942Z,11.31
2023-04-14T08:27:11.663Z,11.32
2023-04-14T08:29:42.389Z,11.30
2023-04-14T08:32:13.234Z,11.22
2023-04-14T08:35:35.080Z,11.36
2023-04-14T08:37:36.228Z,11.45
2023-04-14T08:40:13.271Z,11.60
2023-04-14T08:42:48.876Z,11.71
2023-04-14T08:45:20.140Z,11.54
2023-04-14T08:47:54.466Z,11.58
2023-04-14T08:50:35.024Z,11.73
2023-04-14T08:53:07.074Z,11.94
2023-04-14T08:55:43.170Z,12.08
2023-04-14T08:58:22.892Z,12.34
2023-04-14T09:00:55.975Z,12.44
2023-04-14T09:03:28.600Z,12.56
2023-04-14T09:06:00.372Z,12.64
2023-04-14T09:08:34.223Z,12.71
2023-04-14T09:11:08.242Z,12.57
2023-04-14T09:13:43.812Z,12.65
2023-04-14T09:16:15.964Z,12.68
2023-04-14T09:18:47.494Z,12.71
2023-04-14T09:21:29.378Z,12.92
2023-04-14T09:24:13.773Z,13.03
2023-04-14T09:26:45.253Z,13.10
2023-04-14T09:29:19.069Z,13.18
2023-04-14T09:31:50.818Z,12.72
2023-04-14T09:34:23.819Z,13.10
2023-04-14T09:37:07.149Z,13.29
2023-04-14T09:39:38.951Z,13.53
2023-04-14T09:42:11.978Z,13.69
2023-04-14T09:44:55.855Z,13.58
2023-04-14T09:47:27.031Z,13.48
2023-04-14T09:50:04.022Z,13.48
2023-04-14T09:52:42.773Z,13.25
2023-04-14T09:55:15.180Z,13.34
2023-04-14T09:57:48.377Z,13.45
2023-04-14T10:00:26.570Z,13.22
2023-04-14T10:03:01.750Z,13.12
2023-04-14T10:05:34.887Z,12.95
2023-04-14T10:08:06.972Z,13.07
2023-04-14T10:10:37.794Z,13.23
2023-04-14T10:13:08.772Z,13.19
2023-04-14T10:15:43.416Z,13.13
2023-04-14T10:18:15.336Z,13.35
2023-04-14T10:20:47.349Z,13.68
2023-04-14T10:23:21.390Z,13.96
2023-04-14T10:25:53.312Z,13.85
2023-04-14T10:28:27.964Z,13.43
2023-04-14T10:31:04.495Z,13.69
2023-04-14T10:33:35.552Z,13.52
2023-04-14T10:36:07.624Z,13.42
2023-04-14T10:38:43.138Z,13.43
2023-04-14T10:41:14.905Z,13.47
2023-04-14T10:43:47.152Z,13.64
2023-04-14T10:46:21.450Z,13.98
2023-04-14T10:48:52.555Z,13.87
2023-04-14T10:51:23.573Z,13.71
2023-04-14T10:53:55.809Z,13.79
2023-04-14T10:56:29.438Z,13.75
2023-04-14T10:59:01.866Z,13.78
2023-04-14T11:01:35.305Z,13.80
2023-04-14T11:04:21.022Z,13.79
2023-04-14T11:06:57.423Z,13.96
2023-04-14T11:09:38.207Z,13.89
2023-04-14T11:12:29.088Z,14.35
2023-04-14T11:15:05.326Z,14.44
2023-04-14T11:17:41.310Z,14.17
2023-04-14T11:20:18.101Z,14.15
2023-04-14T11:22:51.080Z,14.69
2023-04-14T11:25:25.719Z,15.18
2023-04-14T11:27:56.995Z,15.23
2023-04-14T11:30:28.152Z,15.02
2023-04-14T11:33:02.202Z,14.74
2023-04-14T11:35:33.858Z,14.44
2023-04-14T11:38:04.852Z,14.29
2023-04-14T11:40:36.839Z,14.52
2023-04-14T11:43:09.361Z,14.47
2023-04-14T11:45:45.761Z,14.29
2023-04-14T11:48:22.742Z,14.73
2023-04-14T11:50:53.937Z,14.85
2023-04-14T11:53:24.840Z,15.13
2023-04-14T11:55:57.785Z,15.02
2023-04-14T11:58:30.494Z,14.82
2023-04-14T12:01:04.536Z,14.95
2023-04-14T12:03:39.743Z,15.27
2023-04-14T12:06:10.916Z,15.35
2023-04-14T12:08:41.715Z,15.96
2023-04-14T12:11:16.448Z,16.11
2023-04-14T12:13:48.571Z,16.06
2023-04-14T12:16:23.090Z,16.40
2023-04-14T12:18:57.188Z,16.49
2023-04-14T12:21:27.984Z,16.82
2023-04-14T12:23:59.187Z,16.89
2023-04-14T12:26:29.856Z,17.04
2023-04-14T12:29:02.375Z,16.27
2023-04-14T12:31:33.774Z,15.86
2023-04-14T12:34:08.495Z,15.76
2023-04-14T12:36:50.002Z,15.74
2023-04-14T12:39:22.400Z,15.57
2023-04-14T12:41:55.819Z,15.51
2023-04-14T12:44:30.732Z,15.40
2023-04-14T12:47:04.104Z,15.36
2023-04-14T12:49:40.787Z,15.39
2023-04-14T12:52:13.468Z,15.19
2023-04-14T12:54:52.267Z,15.01
2023-04-14T12:57:24.271Z,14.59
2023-04-14T12:59:55.495Z,14.86
2023-04-14T13:02:38.217Z,14.86
2023-04-14T13:05:31.764Z,14.27
2023-04-14T13:08:02.933Z,14.65
2023-04-14T13:10:33.790Z,14.67
2023-04-14T13:13:05.378Z,14.63
2023-04-14T13:16:13.108Z,14.36
2023-04-14T13:18:30.134Z,14.42
2023-04-14T13:21:06.007Z,14.25
2023-04-14T13:23:37.933Z,14.17
2023-04-14T13:26:11.240Z,13.86
2023-04-14T13:28:42.757Z,13.69
2023-04-14T13:31:15.983Z,13.58
2023-04-14T13:33:47.503Z,13.64
2023-04-14T13:36:25.370Z,13.73
2023-04-14T13:38:57.956Z,13.76
2023-04-14T13:41:29.254Z,13.13
2023-04-14T13:44:38.055Z,12.97
2023-04-14T13:47:24.249Z,12.77
2023-04-14T13:49:59.020Z,12.66
2023-04-14T13:52:38.724Z,12.84
2023-04-14T13:55:13.065Z,13.07
2023-04-14T13:57:43.928Z,13.27
2023-04-14T14:00:17.959Z,13.53
2023-04-14T14:02:49.959Z,13.64
2023-04-14T14:05:21.267Z,13.81
2023-04-14T14:07:52.530Z,13.73
2023-04-14T14:10:29.934Z,13.58
2023-04-14T14:13:08.374Z,13.53
2023-04-14T14:15:41.621Z,13.40
2023-04-14T14:18:13.819Z,12.87
2023-04-14T14:20:45.156Z,13.16
2023-04-14T14:23:16.827Z,13.29
2023-04-14T14:25:51.325Z,13.16
2023-04-14T14:28:24.027Z,13.09
2023-04-14T14:30:55.022Z,12.97
2023-04-14T14:33:25.651Z,12.99
2023-04-14T14:35:57.236Z,12.90
2023-04-14T14:38:28.004Z,12.91
2023-04-14T14:41:03.101Z,12.89
2023-04-14T14:43:34.467Z,12.78
2023-04-14T14:46:06.104Z,12.78
2023-04-14T14:48:39.228Z,12.62
2023-04-14T14:51:11.589Z,12.63
2023-04-14T14:53:42.636Z,12.30
2023-04-14T14:56:16.097Z,12.61
2023-04-14T14:58:47.989Z,12.63
2023-04-14T15:01:19.263Z,12.87
2023-04-14T15:03:53.576Z,12.80
2023-04-14T15:06:28.872Z,12.79
2023-04-14T15:08:59.534Z,12.85
2023-04-14T15:11:35.116Z,12.86
2023-04-14T15:14:06.339Z,12.82
2023-04-14T15:16:37.476Z,12.86
2023-04-14T15:19:08.526Z,12.76
2023-04-14T15:21:39.214Z,13.09
2023-04-14T15:24:10.222Z,13.03
2023-04-14T15:26:43.958Z,12.92
2023-04-14T15:29:14.582Z,13.03
2023-04-14T15:31:45.308Z,13.04
2023-04-14T15:34:16.013Z,13.15
2023-04-14T15:36:47.230Z,13.29
2023-04-14T15:39:18.272Z,13.49
2023-04-14T15:41:52.304Z,13.50
2023-04-14T15:44:23.100Z,13.42
2023-04-14T15:46:53.653Z,13.45
2023-04-14T15:49:24.636Z,13.25
2023-04-14T15:51:57.248Z,13.35
2023-04-14T15:54:28.086Z,13.28
2023-04-14T15:57:02.499Z,13.20
2023-04-14T15:59:34.046Z,13.08
2023-04-14T16:02:04.982Z,13.04
2023-04-14T16:04:36.620Z,13.03
2023-04-14T16:07:07.585Z,12.99
2023-04-14T16:09:38.838Z,13.06
2023-04-14T16:12:12.287Z,13.02
2023-04-14T16:14:43.320Z,12.84
2023-04-14T16:17:14.354Z,12.92
2023-04-14T16:19:45.050Z,12.85
2023-04-14T16:22:15.886Z,12.84
2023-04-14T16:24:46.824Z,12.80
2023-04-14T16:27:20.382Z,12.55
2023-04-14T16:29:51.173Z,12.66
2023-04-14T16:32:21.905Z,12.61
2023-04-14T16:34:52.798Z,12.67
2023-04-14T16:37:25.915Z,12.71
2023-04-14T16:39:57.869Z,12.67
2023-04-14T16:42:31.109Z,12.74
2023-04-14T16:45:01.948Z,12.78
2023-04-14T16:47:32.615Z,12.78
2023-04-14T16:50:03.433Z,12.69
2023-04-14T16:52:35.212Z,12.50
2023-04-14T16:55:06.053Z,12.53
2023-04-14T16:57:39.302Z,12.41
2023-04-14T17:00:12.296Z,12.31
2023-04-14T17:02:43.803Z,12.27
2023-04-14T17:05:16.332Z,12.22
2023-04-14T17:07:47.200Z,12.24
2023-04-14T17:10:18.352Z,12.25
2023-04-14T17:12:52.751Z,12.03
2023-04-14T17:17:54.833Z,11.85
2023-04-14T17:20:25.829Z,11.87
2023-04-14T17:22:57.984Z,11.80
2023-04-14T17:25:29.403Z,11.65
2023-04-14T17:28:02.973Z,11.62
2023-04-14T17:30:34.984Z,11.60
2023-04-14T17:33:10.614Z,11.56
2023-04-14T17:35:41.496Z,11.50
2023-04-14T17:38:12.193Z,11.53
2023-04-14T17:40:42.914Z,11.44
2023-04-14T17:43:16.190Z,11.39
2023-04-14T17:45:50.649Z,11.30
2023-04-14T17:48:21.676Z,11.12
2023-04-14T17:50:53.124Z,11.26
2023-04-14T17:53:23.854Z,11.25
2023-04-14T17:55:55.024Z,11.14
2023-04-14T17:58:28.924Z,11.03
2023-04-14T18:00:59.863Z,10.95
2023-04-14T18:03:30.934Z,10.95
2023-04-14T18:06:01.928Z,10.89
2023-04-14T18:08:32.583Z,10.82
2023-04-14T18:11:03.355Z,10.77
2023-04-14T18:13:36.573Z,10.70
2023-04-14T18:16:08.171Z,10.56
2023-04-14T18:18:39.626Z,10.66
2023-04-14T18:21:10.942Z,10.61
2023-04-14T18:23:42.097Z,10.56
2023-04-14T18:28:49.183Z,10.56
2023-04-14T18:31:20.019Z,10.55
2023-04-14T18:33:51.198Z,10.53
2023-04-14T18:36:21.991Z,10.46
2023-04-14T18:38:52.786Z,10.39
2023-04-14T18:41:23.485Z,10.32
2023-04-14T18:43:56.831Z,10.23
2023-04-14T18:46:27.705Z,10.19
2023-04-14T18:48:58.771Z,10.17
2023-04-14T18:51:29.670Z,10.14
2023-04-14T18:54:03.913Z,10.08
2023-04-14T18:56:34.750Z,10.04
2023-04-14T18:59:08.102Z,10.03
2023-04-14T19:01:39.535Z,10.00
2023-04-14T19:04:10.584Z,9.89
2023-04-14T19:06:41.572Z,9.86
2023-04-14T19:09:12.257Z,9.89
2023-04-14T19:11:43.222Z,9.86
2023-04-14T19:14:16.572Z,9.84
2023-04-14T19:16:48.044Z,9.83
2023-04-14T19:19:19.532Z,9.82
2023-04-14T19:21:50.150Z,9.82
2023-04-14T19:24:21.585Z,9.76
2023-04-14T19:26:52.305Z,9.76
2023-04-14T19:29:25.695Z,9.74
2023-04-14T19:31:56.731Z,9.73
2023-04-14T19:34:27.745Z,9.56
2023-04-14T19:36:58.552Z,9.68
2023-04-14T19:39:29.660Z,9.68
2023-04-14T19:42:00.403Z,9.63
2023-04-14T19:44:35.701Z,9.60
2023-04-14T19:47:06.594Z,9.61
2023-04-14T19:49:37.727Z,9.48
2023-04-14T19:52:09.152Z,9.50
2023-04-14T19:54:40.828Z,9.51
2023-04-14T19:57:11.585Z,9.52
2023-04-14T19:59:45.006Z,9.50
2023-04-14T20:02:15.985Z,9.49
2023-04-14T20:04:48.747Z,9.48
2023-04-14T20:07:19.342Z,9.44
2023-04-14T20:09:50.094Z,9.40
2023-04-14T20:12:21.080Z,9.38
2023-04-14T20:14:54.372Z,9.34
2023-04-14T20:17:27.513Z,9.32
2023-04-14T20:19:58.432Z,9.30
2023-04-14T20:22:29.038Z,9.28
2023-04-14T20:25:00.245Z,9.27
2023-04-14T20:27:31.906Z,9.24
2023-04-14T20:30:05.623Z,9.21
2023-04-14T20:32:36.579Z,9.18
2023-04-14T20:35:08.129Z,9.15
2023-04-14T20:37:38.732Z,9.11
2023-04-14T20:40:10.952Z,9.06
2023-04-14T20:42:41.500Z,9.04
2023-04-14T20:45:15.495Z,9.02
2023-04-14T20:47:46.885Z,8.97
2023-04-14T20:50:17.959Z,8.91
2023-04-14T20:52:49.121Z,8.95
2023-04-14T20:55:21.052Z,8.93
2023-04-14T20:57:51.800Z,8.89
2023-04-14T21:00:25.411Z,8.84
2023-04-14T21:02:56.318Z,8.77
2023-04-14T21:05:27.231Z,8.79
2023-04-14T21:07:58.053Z,8.76
2023-04-14T21:10:29.059Z,8.73
2023-04-14T21:15:26.455Z,8.71
2023-04-14T21:15:56.426Z,8.67
2023-04-14T21:18:27.803Z,8.65
2023-04-14T21:20:58.622Z,8.63
2023-04-14T21:23:29.415Z,8.61
2023-04-14T21:26:00.143Z,8.60
2023-04-14T21:28:31.587Z,8.60
2023-04-14T21:31:05.460Z,8.59
2023-04-14T21:33:36.420Z,8.56
2023-04-14T21:36:07.514Z,8.59
2023-04-14T21:38:38.806Z,8.39
2023-04-14T21:41:10.429Z,8.61
2023-04-14T21:43:41.938Z,8.50
2023-04-14T21:46:15.508Z,8.53
2023-04-14T21:48:46.488Z,8.55
2023-04-14T21:51:18.796Z,8.53
2023-04-14T21:53:49.775Z,8.48
2023-04-14T21:56:20.840Z,8.47
2023-04-14T21:58:51.470Z,8.46
2023-04-14T22:01:25.096Z,8.45
2023-04-14T22:03:56.219Z,8.41
2023-04-14T22:06:28.221Z,8.39
2023-04-14T22:09:00.315Z,8.45
2023-04-14T22:11:31.629Z,8.23
2023-04-14T22:14:03.043Z,8.42
2023-04-14T22:16:37.397Z,8.28
2023-04-14T22:19:08.532Z,8.30
2023-04-14T22:21:39.448Z,8.30
2023-04-14T22:24:10.586Z,8.29
2023-04-14T22:26:41.945Z,8.31
2023-04-14T22:29:12.626Z,8.26
2023-04-14T22:31:46.108Z,8.21
2023-04-14T22:34:18.260Z,8.28
2023-04-14T22:36:50.527Z,8.29
2023-04-14T22:39:22.671Z,8.23
2023-04-14T22:41:54.765Z,8.28
2023-04-14T22:44:26.372Z,8.16
2023-04-14T22:47:01.778Z,8.12
2023-04-14T22:49:33.756Z,8.07
2023-04-14T22:52:06.147Z,8.04
2023-04-14T22:54:38.075Z,7.99
2023-04-14T22:57:11.373Z,7.95
2023-04-14T22:59:43.650Z,7.88
2023-04-14T23:02:18.184Z,7.81
2023-04-14T23:04:50.402Z,7.81
2023-04-14T23:07:22.428Z,7.85
2023-04-14T23:09:53.928Z,7.98
2023-04-14T23:12:28.279Z,8.08
2023-04-14T23:15:00.206Z,8.09
2023-04-14T23:17:36.253Z,7.99
2023-04-14T23:20:07.628Z,7.98
2023-04-14T23:22:38.696Z,7.92
2023-04-14T23:25:10.853Z,7.86
2023-04-14T23:27:41.560Z,7.73
2023-04-14T23:30:13.489Z,7.85
2023-04-14T23:32:49.463Z,7.83
2023-04-14T23:35:20.618Z,7.91
2023-04-14T23:37:51.551Z,7.93
2023-04-14T23:40:22.755Z,8.05
2023-04-14T23:42:56.181Z,8.15
2023-04-14T23:45:27.407Z,8.11
2023-04-14T23:48:00.945Z,8.05
2023-04-14T23:51:01.525Z,7.84
2023-04-14T23:53:22.895Z,7.94
2023-04-14T23:55:54.104Z,7.94
2023-04-14T23:58:26.998Z,7.91
